Time;durP1;ratioP1;P1;durP2;ratioP2;P2;SDS_P1;SDS_P2;PMS_P1;PMS_P2;Temp;Humidity;BMP_temperature;BMP_pressure;BME280_temperature;BME280_humidity;BME280_pressure;Samples;Min_cycle;Max_cycle;Signal;HPM_P1;HPM_P2
2020/12/06 00:00:10;;;;;;;12.77;8.50;;;;;;;-0.61;88.26;100228.41;5052379;28;20040;-78
2020/12/06 00:02:35;;;;;;;15.13;10.47;;;;;;;-0.59;88.93;100232.75;5050788;28;20021;-78
2020/12/06 00:05:03;;;;;;;23.15;11.73;;;;;;;-0.58;89.33;100241.19;5050499;28;20044;-79
2020/12/06 00:07:28;;;;;;;18.27;11.80;;;;;;;-0.57;90.21;100238.75;5048991;28;20075;-78
2020/12/06 00:09:53;;;;;;;21.67;12.35;;;;;;;-0.64;90.33;100242.59;5045960;28;20502;-79
2020/12/06 00:12:18;;;;;;;19.87;11.80;;;;;;;-0.66;90.25;100249.16;5048104;28;20033;-79
2020/12/06 00:14:44;;;;;;;17.33;10.20;;;;;;;-0.69;89.98;100251.50;5042150;28;20033;-78
2020/12/06 00:17:09;;;;;;;20.48;11.68;;;;;;;-0.64;90.31;100247.63;5046964;28;20025;-77
2020/12/06 00:19:34;;;;;;;17.45;11.38;;;;;;;-0.60;90.27;100258.78;5046988;28;20071;-78
2020/12/06 00:21:59;;;;;;;18.30;11.80;;;;;;;-0.50;90.13;100250.94;5041235;28;20483;-78
2020/12/06 00:24:25;;;;;;;20.17;12.93;;;;;;;-0.44;90.16;100252.94;5048731;28;20279;-78
2020/12/06 00:26:51;;;;;;;21.17;13.70;;;;;;;-0.36;90.87;100254.25;5050337;28;20112;-78
2020/12/06 00:29:17;;;;;;;23.40;14.13;;;;;;;-0.26;90.99;100251.50;5049604;28;20406;-78
2020/12/06 00:31:42;;;;;;;19.23;12.93;;;;;;;-0.32;90.32;100251.16;5051456;28;20095;-77
2020/12/06 00:34:07;;;;;;;19.97;11.97;;;;;;;-0.30;90.04;100247.06;5049727;28;20098;-77
2020/12/06 00:36:32;;;;;;;21.80;12.63;;;;;;;-0.25;89.80;100247.31;5051031;28;20266;-77
2020/12/06 00:38:58;;;;;;;20.20;13.45;;;;;;;-0.32;89.42;100246.09;5051680;28;20055;-78
2020/12/06 00:41:23;;;;;;;19.90;13.37;;;;;;;-0.33;90.11;100240.19;5051413;28;20159;-78
2020/12/06 00:43:48;;;;;;;18.25;11.70;;;;;;;-0.35;89.35;100238.31;5044204;28;20301;-77
2020/12/06 00:46:22;;;;;;;17.35;12.00;;;;;;;-0.40;89.68;100248.16;5045149;28;20082;-79
2020/12/06 00:48:48;;;;;;;22.90;12.77;;;;;;;-0.43;89.48;100240.41;5045353;28;20398;-78
2020/12/06 00:51:13;;;;;;;15.13;10.32;;;;;;;-0.55;88.77;100241.38;5050526;28;20111;-78
2020/12/06 00:53:43;;;;;;;16.15;9.77;;;;;;;-0.85;87.80;100235.41;5052337;28;20513;-78
2020/12/06 00:56:19;;;;;;;14.83;9.43;;;;;;;-1.05;87.51;100240.13;5050561;28;20115;-77
2020/12/06 00:58:45;;;;;;;8.70;6.55;;;;;;;-1.29;87.82;100242.06;5052532;28;20107;-78
2020/12/06 01:01:10;;;;;;;15.45;9.20;;;;;;;-1.40;88.53;100245.56;5053118;28;20056;-77
2020/12/06 01:03:35;;;;;;;14.90;8.68;;;;;;;-1.51;88.73;100253.25;5052982;28;20026;-78
2020/12/06 01:06:00;;;;;;;17.43;10.40;;;;;;;-1.46;90.79;100257.78;5054615;28;20394;-77
2020/12/06 01:08:26;;;;;;;19.93;12.20;;;;;;;-1.34;91.63;100247.56;5053436;28;20282;-77
2020/12/06 01:10:51;;;;;;;20.20;12.38;;;;;;;-1.29;91.54;100252.13;5049644;28;20033;-78
2020/12/06 01:13:16;;;;;;;22.40;12.45;;;;;;;-1.10;91.48;100253.25;5045549;28;20164;-77
2020/12/06 01:15:41;;;;;;;20.60;12.83;;;;;;;-0.96;91.55;100250.78;5051267;28;20044;-79
2020/12/06 01:18:07;;;;;;;21.67;11.83;;;;;;;-1.02;90.28;100254.56;5045605;28;20341;-79
2020/12/06 01:20:32;;;;;;;21.10;12.38;;;;;;;-1.00;90.90;100253.00;5044468;28;20044;-77
2020/12/06 01:22:57;;;;;;;16.37;10.87;;;;;;;-1.08;90.57;100242.47;5040871;28;20025;-76
2020/12/06 01:25:22;;;;;;;13.70;9.45;;;;;;;-1.19;90.39;100247.66;5043504;28;20823;-77
2020/12/06 01:27:48;;;;;;;13.23;8.43;;;;;;;-1.30;90.11;100240.31;5048162;28;20048;-77
2020/12/06 01:30:14;;;;;;;16.65;9.98;;;;;;;-1.38;89.71;100233.06;5045016;28;20040;-77
2020/12/06 01:32:39;;;;;;;18.02;9.88;;;;;;;-1.50;89.77;100235.69;5047789;28;20104;-77
2020/12/06 01:35:05;;;;;;;15.88;9.05;;;;;;;-1.61;90.32;100237.56;5048643;28;20405;-77
2020/12/06 01:37:30;;;;;;;13.70;8.98;;;;;;;-1.64;90.12;100231.44;5054098;28;20028;-77
2020/12/06 01:39:55;;;;;;;14.68;8.50;;;;;;;-1.74;90.08;100239.22;5052497;28;20024;-77
2020/12/06 01:42:21;;;;;;;16.27;9.63;;;;;;;-1.85;90.03;100237.69;5053911;28;20033;-77
2020/12/06 01:44:46;;;;;;;15.38;8.77;;;;;;;-1.89;90.96;100236.63;5052325;28;20279;-77
2020/12/06 01:47:12;;;;;;;17.50;10.35;;;;;;;-1.81;91.23;100239.59;5052663;28;20513;-77
2020/12/06 01:49:38;;;;;;;16.37;10.53;;;;;;;-1.82;90.88;100247.94;5053698;28;20063;-78
2020/12/06 01:52:06;;;;;;;15.55;9.25;;;;;;;-1.80;91.38;100261.50;5052527;28;20047;-77
2020/12/06 01:54:33;;;;;;;19.27;11.60;;;;;;;-1.81;91.74;100260.63;5052485;28;20410;-77
2020/12/06 01:56:58;;;;;;;18.03;11.00;;;;;;;-1.85;92.02;100256.16;5051445;28;20025;-78
2020/12/06 01:59:23;;;;;;;17.15;11.05;;;;;;;-1.86;92.23;100256.06;5051431;28;20028;-78
2020/12/06 02:01:58;;;;;;;16.50;10.57;;;;;;;-1.87;92.33;100247.66;5051381;28;20084;-78
2020/12/06 02:04:25;;;;;;;19.00;12.33;;;;;;;-1.83;91.66;100258.78;5054621;28;20287;-78
2020/12/06 02:06:50;;;;;;;25.37;13.57;;;;;;;-1.48;92.74;100263.50;5053634;28;20029;-77
2020/12/06 02:09:16;;;;;;;21.50;14.00;;;;;;;-1.41;92.83;100269.00;5050451;28;20486;-77
2020/12/06 02:11:42;;;;;;;29.00;16.27;;;;;;;-1.29;92.65;100277.34;5049064;28;20048;-77
2020/12/06 02:14:10;;;;;;;25.35;15.43;;;;;;;-1.27;92.62;100283.34;5048869;28;20136;-77
2020/12/06 02:16:35;;;;;;;26.60;16.67;;;;;;;-1.22;92.68;100292.81;5049965;28;20107;-77
2020/12/06 02:19:01;;;;;;;26.90;17.13;;;;;;;-1.22;92.33;100288.66;5048971;28;20112;-76
2020/12/06 02:21:26;;;;;;;26.85;16.88;;;;;;;-1.16;92.60;100288.16;5049847;28;20029;-77
2020/12/06 02:23:51;;;;;;;26.70;17.27;;;;;;;-1.09;92.75;100297.81;5048518;28;20079;-77
2020/12/06 02:26:17;;;;;;;29.57;17.33;;;;;;;-1.02;92.86;100304.97;5049784;28;20319;-78
2020/12/06 02:28:42;;;;;;;29.60;17.23;;;;;;;-0.85;92.92;100293.41;5051111;28;20287;-78
2020/12/06 02:31:10;;;;;;;26.58;16.20;;;;;;;-0.94;92.01;100298.78;5051824;28;20020;-77
2020/12/06 02:33:36;;;;;;;26.23;16.13;;;;;;;-0.97;92.52;100296.06;5049258;28;20458;-77
2020/12/06 02:36:01;;;;;;;36.50;19.90;;;;;;;-0.88;93.05;100293.22;5048855;28;20104;-77
2020/12/06 02:38:26;;;;;;;32.80;18.23;;;;;;;-0.81;93.35;100300.38;5048963;28;20051;-77
2020/12/06 02:40:52;;;;;;;20.50;13.90;;;;;;;-0.97;92.69;100296.06;5047490;28;20275;-77
2020/12/06 02:43:17;;;;;;;17.77;11.65;;;;;;;-0.95;92.11;100289.47;5048750;28;20021;-77
2020/12/06 02:45:42;;;;;;;16.63;10.40;;;;;;;-1.19;90.55;100287.97;5047636;28;20098;-77
2020/12/06 02:48:07;;;;;;;14.77;10.00;;;;;;;-1.34;89.51;100287.88;5047688;28;20035;-77
2020/12/06 02:50:33;;;;;;;14.90;9.57;;;;;;;-1.49;89.82;100281.91;5047611;28;20283;-77
2020/12/06 02:52:58;;;;;;;18.80;9.60;;;;;;;-1.68;89.30;100279.88;5074397;22;20044;-73
2020/12/06 02:55:25;;;;;;;13.95;8.75;;;;;;;-1.70;89.67;100272.22;5065906;28;20024;-72
2020/12/06 02:57:51;;;;;;;16.27;9.53;;;;;;;-1.74;89.71;100266.91;5050516;28;20052;-73
2020/12/06 03:00:16;;;;;;;16.23;10.60;;;;;;;-1.85;89.67;100266.25;5048703;28;20063;-72
2020/12/06 03:02:42;;;;;;;16.30;9.98;;;;;;;-1.86;90.24;100261.97;5049729;28;20016;-73
2020/12/06 03:05:07;;;;;;;14.73;9.48;;;;;;;-1.92;90.74;100265.00;5064899;28;20543;-73
2020/12/06 03:07:32;;;;;;;16.75;10.63;;;;;;;-1.96;90.93;100257.13;5057600;28;20024;-72
2020/12/06 03:09:57;;;;;;;22.83;11.47;;;;;;;-1.93;90.89;100259.84;5047170;28;20029;-71
2020/12/06 03:12:23;;;;;;;27.60;11.05;;;;;;;-1.98;91.12;100259.53;5057511;28;20644;-73
2020/12/06 03:14:48;;;;;;;18.08;10.95;;;;;;;-2.03;90.87;100260.03;5068328;28;20477;-73
2020/12/06 03:17:13;;;;;;;19.63;11.27;;;;;;;-2.06;91.24;100249.75;5068352;28;20028;-73
2020/12/06 03:19:38;;;;;;;17.07;11.57;;;;;;;-2.09;91.52;100255.47;5068410;28;20293;-73
2020/12/06 03:22:04;;;;;;;26.70;16.03;;;;;;;-1.99;92.84;100272.91;5054188;28;20270;-73
2020/12/06 03:24:29;;;;;;;29.58;15.70;;;;;;;-1.90;92.76;100273.50;5067022;28;20394;-74
2020/12/06 03:26:54;;;;;;;31.98;18.67;;;;;;;-1.79;93.18;100270.78;5066982;28;20024;-75
2020/12/06 03:29:19;;;;;;;18.75;12.57;;;;;;;-1.95;92.14;100276.50;5068318;28;20082;-76
2020/12/06 03:31:45;;;;;;;27.20;16.77;;;;;;;-1.70;92.92;100271.34;5068067;28;20051;-75
2020/12/06 03:34:10;;;;;;;20.45;11.05;;;;;;;-1.71;92.08;100272.13;5063942;28;20035;-74
2020/12/06 03:36:35;;;;;;;20.67;10.32;;;;;;;-1.89;91.73;100270.22;5047954;28;20047;-75
2020/12/06 03:39:00;;;;;;;16.70;10.10;;;;;;;-2.12;90.68;100272.91;5047139;28;20103;-72
2020/12/06 03:41:26;;;;;;;17.83;10.43;;;;;;;-2.25;90.34;100277.91;5060811;28;20033;-69
2020/12/06 03:43:51;;;;;;;15.17;9.23;;;;;;;-2.34;89.95;100277.28;5048164;28;20029;-72
2020/12/06 03:46:16;;;;;;;21.50;12.97;;;;;;;-2.31;90.64;100270.81;5049825;28;20294;-73
2020/12/06 03:48:42;;;;;;;15.03;9.80;;;;;;;-2.40;90.50;100267.72;5051238;28;20310;-73
2020/12/06 03:51:07;;;;;;;18.67;11.60;;;;;;;-2.31;90.48;100272.47;5055089;28;20281;-75
2020/12/06 03:53:32;;;;;;;20.88;12.10;;;;;;;-2.39;90.70;100273.63;5066468;28;20051;-74
2020/12/06 03:55:57;;;;;;;23.23;13.73;;;;;;;-2.38;91.10;100270.31;5067888;28;20039;-73
2020/12/06 03:58:23;;;;;;;17.50;10.93;;;;;;;-2.40;90.85;100266.84;5057434;28;20028;-72
2020/12/06 04:00:48;;;;;;;19.90;10.60;;;;;;;-2.52;91.15;100267.78;5048055;28;20776;-73
2020/12/06 04:03:13;;;;;;;23.03;12.77;;;;;;;-2.56;90.91;100270.88;5053543;28;20045;-73
2020/12/06 04:05:38;;;;;;;26.67;14.30;;;;;;;-2.55;91.83;100272.63;5056211;28;20287;-73
2020/12/06 04:08:04;;;;;;;22.30;13.10;;;;;;;-2.57;91.75;100263.22;5061051;28;20282;-72
2020/12/06 04:10:29;;;;;;;21.48;12.63;;;;;;;-2.55;92.07;100261.69;5070321;28;20034;-73
2020/12/06 04:12:54;;;;;;;21.00;13.60;;;;;;;-2.46;92.33;100266.44;5069762;28;20031;-73
2020/12/06 04:15:20;;;;;;;22.00;13.45;;;;;;;-2.49;92.19;100263.72;5052126;28;20027;-73
2020/12/06 04:17:45;;;;;;;24.25;14.02;;;;;;;-2.47;92.57;100267.22;5050342;28;20037;-73
2020/12/06 04:20:11;;;;;;;19.30;11.25;;;;;;;-2.42;92.26;100271.78;5064364;28;20186;-70
2020/12/06 04:22:36;;;;;;;21.07;13.37;;;;;;;-2.33;92.43;100264.81;5065252;28;20094;-73
2020/12/06 04:25:02;;;;;;;19.48;12.70;;;;;;;-2.35;92.37;100270.53;5057908;28;20278;-73
2020/12/06 04:27:27;;;;;;;34.67;18.30;;;;;;;-2.14;93.04;100271.06;5060528;28;20033;-75
2020/12/06 04:29:52;;;;;;;43.65;19.90;;;;;;;-2.13;93.62;100266.13;5049992;28;20032;-75
2020/12/06 04:32:18;;;;;;;20.90;12.37;;;;;;;-2.33;92.17;100263.94;5053555;28;20402;-76
2020/12/06 04:34:45;;;;;;;19.20;11.43;;;;;;;-2.58;91.70;100279.97;5051058;28;20337;-73
2020/12/06 04:37:11;;;;;;;33.13;17.67;;;;;;;-2.33;93.84;100284.06;5052074;28;20071;-75
2020/12/06 04:39:36;;;;;;;38.20;20.25;;;;;;;-1.96;94.09;100277.25;5062258;28;20024;-75
2020/12/06 04:42:02;;;;;;;41.50;19.47;;;;;;;-2.03;94.13;100281.03;5069144;28;20029;-76
2020/12/06 04:44:27;;;;;;;28.73;17.73;;;;;;;-2.02;94.09;100282.78;5066670;28;20462;-75
2020/12/06 04:46:59;;;;;;;21.48;13.15;;;;;;;-2.11;93.04;100289.72;5070706;28;20055;-75
2020/12/06 04:49:42;;;;;;;21.03;12.83;;;;;;;-2.16;92.19;100281.03;5070836;28;20020;-73
2020/12/06 04:52:12;;;;;;;24.37;14.10;;;;;;;-2.27;91.73;100276.94;5068824;28;20029;-73
2020/12/06 04:54:40;;;;;;;29.53;14.73;;;;;;;-2.29;91.79;100280.97;5069163;28;20028;-76
2020/12/06 04:57:08;;;;;;;21.40;12.20;;;;;;;-2.34;91.17;100287.34;5070371;28;20025;-74
2020/12/06 04:59:40;;;;;;;20.17;12.83;;;;;;;-2.49;91.01;100276.31;5068349;28;20031;-75
2020/12/06 05:02:09;;;;;;;23.57;12.87;;;;;;;-2.42;91.32;100278.44;5050520;28;20017;-73
2020/12/06 05:04:40;;;;;;;24.30;13.13;;;;;;;-2.44;91.28;100277.47;5068530;28;20028;-73
2020/12/06 05:07:06;;;;;;;23.70;13.90;;;;;;;-2.38;92.24;100283.78;5071405;28;20085;-73
2020/12/06 05:09:35;;;;;;;20.65;12.52;;;;;;;-2.35;92.45;100285.63;5059334;28;20764;-72
2020/12/06 05:12:00;;;;;;;24.43;14.30;;;;;;;-2.29;92.63;100286.88;5062087;28;20020;-73
2020/12/06 05:14:26;;;;;;;24.42;13.55;;;;;;;-2.21;92.13;100284.88;5070040;28;20031;-76
2020/12/06 05:16:54;;;;;;;27.50;14.80;;;;;;;-2.24;92.71;100283.03;5065011;28;20036;-72
2020/12/06 05:19:26;;;;;;;23.93;13.37;;;;;;;-2.21;92.42;100280.72;5054258;28;20500;-73
2020/12/06 05:21:51;;;;;;;21.07;12.50;;;;;;;-2.25;92.53;100282.94;5058498;28;20035;-74
2020/12/06 05:24:17;;;;;;;21.65;12.32;;;;;;;-2.30;91.99;100280.09;5048807;28;20406;-71
2020/12/06 05:26:43;;;;;;;23.98;13.25;;;;;;;-2.30;92.47;100285.13;5053689;28;20028;-72
2020/12/06 05:29:08;;;;;;;21.85;12.15;;;;;;;-2.21;92.36;100284.88;5062987;28;20035;-73
2020/12/06 05:31:33;;;;;;;27.42;13.02;;;;;;;-2.22;92.29;100283.16;5066039;28;20030;-71
2020/12/06 05:33:58;;;;;;;19.38;12.23;;;;;;;-2.23;92.76;100281.41;5063704;28;20067;-73
2020/12/06 05:36:24;;;;;;;21.60;13.02;;;;;;;-2.25;92.26;100287.97;5065082;28;20028;-71
2020/12/06 05:38:50;;;;;;;20.73;12.93;;;;;;;-2.29;92.47;100286.00;5063892;28;20156;-73
2020/12/06 05:41:15;;;;;;;20.73;12.15;;;;;;;-2.28;92.32;100286.13;5052652;28;20021;-73
2020/12/06 05:43:41;;;;;;;19.80;11.70;;;;;;;-2.27;91.93;100285.38;5049692;28;20086;-73
2020/12/06 05:46:14;;;;;;;19.45;11.77;;;;;;;-2.30;91.88;100289.28;5046800;28;20668;-73
2020/12/06 05:48:41;;;;;;;22.00;12.20;;;;;;;-2.32;92.32;100290.84;5059246;28;20063;-74
2020/12/06 05:51:07;;;;;;;20.73;11.47;;;;;;;-2.31;92.16;100290.94;5068138;28;20039;-71
2020/12/06 05:53:33;;;;;;;;;;;;;;;-2.35;92.36;100290.66;5068288;28;20028;-71
2020/12/06 05:56:15;;;;;;;19.23;12.00;;;;;;;-2.34;92.27;100293.25;5064964;28;20046;-73
2020/12/06 05:58:42;;;;;;;19.03;12.33;;;;;;;-2.33;92.01;100297.50;5046847;28;20021;-73
2020/12/06 06:01:09;;;;;;;21.37;12.20;;;;;;;-2.21;92.22;100302.50;5057399;28;20032;-73
2020/12/06 06:03:36;;;;;;;21.50;12.10;;;;;;;-2.25;92.04;100298.91;5059134;28;20131;-71
2020/12/06 06:06:05;;;;;;;23.97;11.87;;;;;;;-2.24;91.98;100304.81;5054307;28;20605;-73
2020/12/06 06:08:35;;;;;;;22.17;12.10;;;;;;;-2.29;92.01;100303.63;5057106;28;20055;-74
2020/12/06 06:11:27;;;;;;;20.87;11.53;;;;;;;-2.26;92.22;100296.31;5067764;28;20024;-73
2020/12/06 06:14:04;;;;;;;20.67;13.10;;;;;;;-2.28;92.00;100291.16;5051482;28;20107;-73
2020/12/06 06:16:30;;;;;;;;;;;;;;;-2.24;91.85;100289.72;5048994;28;20027;-72
2020/12/06 06:18:58;;;;;;;31.10;17.63;;;;;;;-2.10;92.30;100285.56;5060425;28;20003;-73
2020/12/06 06:21:30;;;;;;;27.80;15.80;;;;;;;-2.00;92.85;100286.25;5064433;28;20032;-73
2020/12/06 06:23:58;;;;;;;27.40;15.80;;;;;;;-1.86;92.81;100288.81;5063093;28;20436;-73
2020/12/06 06:26:26;;;;;;;21.37;14.20;;;;;;;-1.98;92.27;100294.78;5068419;28;20067;-76
2020/12/06 06:28:53;;;;;;;27.27;15.37;;;;;;;-2.11;91.85;100287.22;5050783;28;20044;-73
2020/12/06 06:31:20;;;;;;;28.90;16.80;;;;;;;-2.11;91.92;100276.28;5061994;28;20024;-73
2020/12/06 06:33:47;;;;;;;30.07;17.97;;;;;;;-2.10;92.70;100280.53;5062326;28;20055;-73
2020/12/06 06:36:12;;;;;;;31.03;18.03;;;;;;;-2.06;92.59;100282.47;5067590;28;20027;-73
2020/12/06 06:38:45;;;;;;;29.88;18.15;;;;;;;-1.93;93.39;100283.38;5067813;28;20025;-72
2020/12/06 06:41:11;;;;;;;35.53;19.60;;;;;;;-1.81;93.50;100288.31;5053074;28;20070;-71
2020/12/06 06:43:38;;;;;;;28.10;16.97;;;;;;;-1.68;93.28;100284.91;5048593;28;20130;-72
2020/12/06 06:46:14;;;;;;;30.87;16.97;;;;;;;-1.67;93.44;100284.13;5048758;28;20051;-73
2020/12/06 06:48:43;;;;;;;32.72;19.23;;;;;;;-1.64;93.38;100286.84;5067006;28;20038;-74
2020/12/06 06:51:17;;;;;;;35.40;19.10;;;;;;;-1.64;93.42;100284.31;5068566;28;20142;-73
2020/12/06 06:53:43;;;;;;;29.63;17.37;;;;;;;-1.61;93.69;100287.94;5046128;28;20056;-73
2020/12/06 06:56:09;;;;;;;27.92;16.23;;;;;;;-1.65;93.31;100296.03;5063585;28;20059;-73
2020/12/06 06:58:35;;;;;;;39.90;20.50;;;;;;;-1.66;93.33;100295.94;5067459;28;20370;-73
2020/12/06 07:01:19;;;;;;;;;;;;;;;-1.61;93.73;100295.50;5065869;28;20027;-71
2020/12/06 07:03:47;;;;;;;24.57;15.20;;;;;;;-1.59;93.21;100298.09;5066692;28;19921;-71
2020/12/06 07:06:47;;;;;;;30.97;16.73;;;;;;;-1.73;92.96;100302.25;5067696;28;20031;-73
2020/12/06 07:09:33;;;;;;;27.23;16.73;;;;;;;-1.72;93.26;100303.13;5068283;28;20066;-72
2020/12/06 07:12:00;;;;;;;28.23;16.40;;;;;;;-1.67;93.21;100304.28;5058188;28;20037;-73
2020/12/06 07:14:27;;;;;;;33.90;21.80;;;;;;;-1.63;93.65;100306.22;5054842;28;20520;-73
2020/12/06 07:16:54;;;;;;;40.97;24.03;;;;;;;-1.47;94.00;100308.06;5063048;28;20021;-72
2020/12/06 07:19:20;;;;;;;48.77;26.73;;;;;;;-1.41;94.21;100305.91;5062886;28;20025;-73
2020/12/06 07:21:47;;;;;;;44.78;25.27;;;;;;;-1.37;94.26;100306.19;5066882;28;20020;-73
2020/12/06 07:24:13;;;;;;;40.97;21.93;;;;;;;-1.42;94.74;100304.19;5068161;28;20021;-73
2020/12/06 07:26:38;;;;;;;37.93;21.23;;;;;;;-1.42;94.79;100307.56;5051373;28;20029;-71
2020/12/06 07:29:04;;;;;;;36.22;19.85;;;;;;;-1.43;94.28;100302.44;5048399;28;20040;-71
2020/12/06 07:31:29;;;;;;;35.95;19.88;;;;;;;-1.45;94.64;100299.81;5049812;28;20021;-73
2020/12/06 07:33:54;;;;;;;34.70;19.95;;;;;;;-1.46;94.89;100295.56;5059664;28;20024;-73
2020/12/06 07:36:21;;;;;;;27.08;16.48;;;;;;;-1.46;94.48;100292.16;5048875;28;20067;-70
2020/12/06 07:38:46;;;;;;;33.80;18.45;;;;;;;-1.50;94.23;100296.16;5053010;28;20397;-71
2020/12/06 07:41:11;;;;;;;38.40;21.77;;;;;;;-1.48;94.53;100289.56;5053273;28;20104;-73
2020/12/06 07:43:38;;;;;;;42.75;22.45;;;;;;;-1.36;94.42;100294.47;5062348;28;20027;-73
2020/12/06 07:46:15;;;;;;;43.60;24.03;;;;;;;-1.26;94.70;100299.31;5070127;28;20060;-70
2020/12/06 07:48:41;;;;;;;39.65;21.90;;;;;;;-1.17;94.80;100297.38;5065069;28;20112;-73
2020/12/06 07:51:06;;;;;;;29.23;17.17;;;;;;;-1.21;94.55;100304.66;5063270;28;20104;-73
2020/12/06 07:53:49;;;;;;;28.70;16.42;;;;;;;-1.29;94.36;100306.69;5050080;28;20046;-74
2020/12/06 07:56:19;;;;;;;27.70;17.33;;;;;;;-1.34;94.19;100308.03;5050537;28;20506;-73
2020/12/06 07:58:52;;;;;;;34.10;19.47;;;;;;;-1.30;94.00;100305.81;5054493;28;20059;-73
2020/12/06 08:01:17;;;;;;;27.63;17.30;;;;;;;-1.29;94.00;100297.50;5062140;28;20032;-73
2020/12/06 08:03:43;;;;;;;31.17;15.95;;;;;;;-1.27;93.46;100308.53;5058559;28;20036;-73
2020/12/06 08:06:11;;;;;;;27.45;15.30;;;;;;;-1.24;93.29;100305.34;5055942;28;20040;-73
2020/12/06 08:08:42;;;;;;;25.53;15.67;;;;;;;-1.22;92.90;100292.81;5052444;28;20032;-73
2020/12/06 08:11:08;;;;;;;25.53;16.73;;;;;;;-1.16;92.76;100293.19;5066026;28;20048;-73
2020/12/06 08:13:34;;;;;;;32.40;18.17;;;;;;;-1.16;92.74;100288.16;5069913;28;20052;-73
2020/12/06 08:16:07;;;;;;;28.63;16.15;;;;;;;-1.12;92.73;100296.00;5063024;28;20055;-73
2020/12/06 08:18:32;;;;;;;36.23;17.40;;;;;;;-1.07;92.95;100283.66;5063414;28;20482;-72
2020/12/06 08:20:57;;;;;;;29.38;16.75;;;;;;;-0.91;92.57;100281.31;5049952;28;20044;-73
2020/12/06 08:23:33;;;;;;;23.42;14.20;;;;;;;-0.86;92.10;100284.09;5058199;28;20041;-73
2020/12/06 08:25:59;;;;;;;21.15;13.90;;;;;;;-0.97;91.56;100296.94;5057888;28;20048;-72
2020/12/06 08:28:25;;;;;;;22.75;13.43;;;;;;;-1.02;91.47;100297.41;5051404;28;20029;-73
2020/12/06 08:30:50;;;;;;;29.70;17.02;;;;;;;-1.04;91.78;100309.06;5057733;28;20511;-71
2020/12/06 08:33:22;;;;;;;26.98;17.00;;;;;;;-0.99;92.09;100306.03;5062658;28;20033;-73
2020/12/06 08:35:48;;;;;;;25.93;17.00;;;;;;;-0.89;91.97;100299.91;5057714;28;20095;-73
2020/12/06 08:38:22;;;;;;;25.10;15.43;;;;;;;-0.86;91.90;100305.13;5065261;28;20560;-73
2020/12/06 08:41:04;;;;;;;29.23;16.63;;;;;;;-0.85;92.24;100299.31;5065077;28;20036;-73
2020/12/06 08:43:45;;;;;;;29.10;17.83;;;;;;;-0.63;92.06;100297.28;5063921;28;20132;-70
2020/12/06 08:46:11;;;;;;;26.57;15.60;;;;;;;-0.63;91.70;100297.28;5057953;28;20104;-73
2020/12/06 08:48:37;;;;;;;22.50;14.53;;;;;;;-0.57;91.06;100301.81;5049644;28;20111;-73
2020/12/06 08:51:02;;;;;;;26.05;15.18;;;;;;;-0.64;90.76;100298.06;5049210;28;20435;-73
2020/12/06 08:53:41;;;;;;;22.02;13.82;;;;;;;-0.58;91.07;100300.09;5079099;22;20143;-78
2020/12/06 08:56:22;;;;;;;23.87;14.47;;;;;;;-0.46;91.01;100292.34;5055222;28;20372;-76
2020/12/06 08:58:47;;;;;;;29.00;18.40;;;;;;;-0.23;91.18;100281.94;5060901;28;20030;-73
2020/12/06 09:01:12;;;;;;;29.15;18.13;;;;;;;-0.13;91.35;100289.25;5059315;28;20025;-76
2020/12/06 09:03:38;;;;;;;26.60;16.67;;;;;;;-0.09;90.98;100298.75;5061310;28;20028;-75
2020/12/06 09:06:03;;;;;;;29.92;16.73;;;;;;;-0.15;91.09;100300.91;5061803;28;20025;-75
2020/12/06 09:08:28;;;;;;;27.50;18.58;;;;;;;-0.06;90.95;100291.34;5054080;28;20028;-73
2020/12/06 09:10:53;;;;;;;27.90;17.67;;;;;;;-0.02;90.75;100295.78;5058673;28;20028;-75
2020/12/06 09:13:19;;;;;;;34.97;18.50;;;;;;;0.03;90.88;100287.63;5063895;28;20292;-72
2020/12/06 09:15:44;;;;;;;36.23;19.07;;;;;;;0.06;90.77;100280.22;5060744;28;20021;-75
2020/12/06 09:18:09;;;;;;;32.37;20.40;;;;;;;0.04;91.11;100277.59;5063110;28;20277;-77
2020/12/06 09:20:34;;;;;;;30.90;18.97;;;;;;;0.19;90.85;100285.16;5061773;28;20209;-74
2020/12/06 09:22:59;;;;;;;30.70;19.83;;;;;;;0.17;90.88;100281.66;5064250;28;20278;-76
2020/12/06 09:25:25;;;;;;;31.43;19.97;;;;;;;0.16;90.90;100280.78;5055946;28;20035;-75
2020/12/06 09:27:50;;;;;;;28.67;18.10;;;;;;;0.18;90.95;100285.94;5058568;28;20388;-75
2020/12/06 09:30:15;;;;;;;30.00;18.37;;;;;;;0.22;90.94;100287.84;5057829;28;20287;-73
2020/12/06 09:32:40;;;;;;;30.40;18.27;;;;;;;0.23;91.02;100290.44;5056822;28;20274;-75
2020/12/06 09:35:06;;;;;;;28.97;19.13;;;;;;;0.23;90.68;100289.56;5054392;28;20033;-75
2020/12/06 09:37:31;;;;;;;33.30;18.67;;;;;;;0.22;90.35;100290.38;5057913;28;20277;-75
2020/12/06 09:39:56;;;;;;;29.50;18.23;;;;;;;0.27;90.74;100299.94;5057285;28;20048;-74
2020/12/06 09:42:21;;;;;;;33.87;19.97;;;;;;;0.29;91.08;100305.06;5060522;28;20275;-74
2020/12/06 09:44:49;;;;;;;34.60;21.10;;;;;;;0.33;91.22;100299.44;5054823;28;20028;-73
2020/12/06 09:47:14;;;;;;;36.13;22.40;;;;;;;0.38;90.90;100300.56;5060992;28;20280;-75
2020/12/06 09:49:39;;;;;;;31.83;19.63;;;;;;;0.45;91.05;100292.50;5056390;28;20029;-76
2020/12/06 09:52:05;;;;;;;31.47;19.20;;;;;;;0.53;90.60;100293.78;5056779;28;20758;-76
2020/12/06 09:54:30;;;;;;;32.40;20.33;;;;;;;0.60;90.66;100295.00;5056177;28;20040;-73
2020/12/06 09:56:55;;;;;;;31.57;20.43;;;;;;;0.69;90.51;100292.13;5061111;28;20020;-75
2020/12/06 09:59:20;;;;;;;32.13;20.73;;;;;;;0.74;90.02;100301.69;5058247;28;20290;-76
2020/12/06 10:01:46;;;;;;;37.07;22.80;;;;;;;0.73;90.28;100299.06;5060919;28;20020;-76
2020/12/06 10:04:11;;;;;;;36.47;21.30;;;;;;;0.79;90.35;100304.44;5056535;28;20021;-75
2020/12/06 10:06:36;;;;;;;35.73;21.90;;;;;;;0.79;90.58;100294.34;5052807;28;20037;-76
2020/12/06 10:09:02;;;;;;;42.13;24.17;;;;;;;0.74;90.64;100285.66;5058689;28;20040;-77
2020/12/06 10:11:27;;;;;;;38.40;22.85;;;;;;;0.77;90.82;100279.09;5052626;28;20283;-78
2020/12/06 10:13:53;;;;;;;37.03;21.63;;;;;;;0.82;90.66;100271.75;5055127;28;20021;-76
2020/12/06 10:16:18;;;;;;;39.08;22.75;;;;;;;0.92;90.49;100256.25;5060139;28;20023;-75
2020/12/06 10:18:44;;;;;;;33.50;20.70;;;;;;;1.00;90.68;100249.09;5059092;28;21333;-77
2020/12/06 10:21:11;;;;;;;;;;;;;;;1.06;90.28;100257.00;5055305;28;20032;-76
2020/12/06 10:23:37;;;;;;;36.55;21.08;;;;;;;1.07;90.38;100254.53;5060381;28;19920;-76
2020/12/06 10:26:02;;;;;;;34.38;21.35;;;;;;;1.12;90.14;100248.06;5059307;28;20474;-77
2020/12/06 10:28:28;;;;;;;37.47;22.47;;;;;;;1.17;90.06;100246.63;5051868;28;20107;-77
2020/12/06 10:30:54;;;;;;;32.43;20.80;;;;;;;1.22;89.87;100242.66;5057142;28;20267;-78
2020/12/06 10:33:22;;;;;;;35.67;21.83;;;;;;;1.23;89.98;100239.34;5057069;28;20275;-76
2020/12/06 10:35:47;;;;;;;36.23;22.17;;;;;;;1.27;89.89;100242.03;5055306;28;20089;-76
2020/12/06 10:38:12;;;;;;;32.83;20.83;;;;;;;1.34;90.09;100244.09;5054953;28;21822;-77
2020/12/06 10:40:38;;;;;;;32.05;19.50;;;;;;;1.36;89.90;100250.13;5058736;28;20270;-75
2020/12/06 10:43:04;;;;;;;33.15;20.67;;;;;;;1.39;89.87;100247.72;5054205;28;20025;-77
2020/12/06 10:45:30;;;;;;;33.33;21.00;;;;;;;1.45;89.60;100245.50;5058839;28;20028;-78
2020/12/06 10:47:55;;;;;;;31.83;19.98;;;;;;;1.52;89.88;100248.41;5058914;28;20556;-76
2020/12/06 10:50:20;;;;;;;36.87;23.00;;;;;;;1.55;89.60;100247.69;5058834;28;20028;-77
2020/12/06 10:52:45;;;;;;;33.10;20.77;;;;;;;1.60;89.19;100240.31;5056881;28;20697;-76
2020/12/06 10:55:11;;;;;;;36.03;22.23;;;;;;;1.59;89.45;100241.97;5059910;28;20032;-73
2020/12/06 10:57:36;;;;;;;36.08;22.35;;;;;;;1.63;89.32;100241.38;5059516;28;20053;-76
2020/12/06 11:00:02;;;;;;;37.20;22.83;;;;;;;1.73;89.27;100233.44;5059902;28;20017;-77
2020/12/06 11:02:28;;;;;;;39.03;23.03;;;;;;;1.67;89.16;100232.25;5058632;28;20508;-75
2020/12/06 11:04:53;;;;;;;37.85;22.83;;;;;;;1.69;89.48;100235.75;5057338;28;20032;-78
2020/12/06 11:07:18;;;;;;;36.97;23.53;;;;;;;1.70;89.06;100233.28;5062263;28;20532;-76
2020/12/06 11:09:43;;;;;;;38.70;22.63;;;;;;;1.72;89.20;100233.34;5060408;28;20027;-77